sensor_id;sensor_type;location;lat;lon;timestamp;pressure;altitude;pressure_sealevel;temperature;humidity
21276;BME280;36472;52.170;20.884;2023-06-22T00:00:43;100492.44;;;21.14;100.00
21276;BME280;36472;52.170;20.884;2023-06-22T00:03:30;100499.81;;;21.12;100.00
21276;BME280;36472;52.170;20.884;2023-06-22T00:05:59;100506.13;;;21.11;100.00
21276;BME280;36472;52.170;20.884;2023-06-22T00:08:30;100509.50;;;21.13;100.00
21276;BME280;36472;52.170;20.884;2023-06-22T00:10:59;100496.78;;;21.07;100.00
21276;BME280;36472;52.170;20.884;2023-06-22T00:13:28;100489.59;;;20.99;100.00
21276;BME280;36472;52.170;20.884;2023-06-22T00:15:57;100488.75;;;20.99;100.00
21276;BME280;36472;52.170;20.884;2023-06-22T00:18:26;100500.13;;;20.92;100.00
21276;BME280;36472;52.170;20.884;2023-06-22T00:20:55;100490.44;;;20.91;100.00
21276;BME280;36472;52.170;20.884;2023-06-22T00:23:26;100489.78;;;20.89;100.00
21276;BME280;36472;52.170;20.884;2023-06-22T00:25:56;100490.91;;;20.87;100.00
21276;BME280;36472;52.170;20.884;2023-06-22T00:28:26;100503.63;;;20.85;100.00
21276;BME280;36472;52.170;20.884;2023-06-22T00:30:54;100492.09;;;20.84;100.00
21276;BME280;36472;52.170;20.884;2023-06-22T00:33:26;100490.25;;;20.85;100.00
21276;BME280;36472;52.170;20.884;2023-06-22T00:35:56;100488.78;;;20.82;100.00
21276;BME280;36472;52.170;20.884;2023-06-22T00:38:25;100494.59;;;20.78;100.00
21276;BME280;36472;52.170;20.884;2023-06-22T00:40:54;100480.41;;;20.77;100.00
21276;BME280;36472;52.170;20.884;2023-06-22T00:43:24;100480.75;;;20.74;100.00
21276;BME280;36472;52.170;20.884;2023-06-22T00:45:56;100488.75;;;20.74;100.00
21276;BME280;36472;52.170;20.884;2023-06-22T00:48:25;100488.91;;;20.72;100.00
21276;BME280;36472;52.170;20.884;2023-06-22T00:50:55;100482.91;;;20.70;100.00
21276;BME280;36472;52.170;20.884;2023-06-22T00:53:24;100486.56;;;20.69;100.00
21276;BME280;36472;52.170;20.884;2023-06-22T00:55:55;100493.25;;;20.65;100.00
21276;BME280;36472;52.170;20.884;2023-06-22T00:58:28;100487.03;;;20.65;100.00
21276;BME280;36472;52.170;20.884;2023-06-22T01:00:57;100479.53;;;20.60;100.00
21276;BME280;36472;52.170;20.884;2023-06-22T01:03:28;100473.31;;;20.60;100.00
21276;BME280;36472;52.170;20.884;2023-06-22T01:06:10;100471.16;;;20.55;100.00
21276;BME280;36472;52.170;20.884;2023-06-22T01:08:52;100465.97;;;20.53;100.00
21276;BME280;36472;52.170;20.884;2023-06-22T01:11:32;100461.78;;;20.51;100.00
21276;BME280;36472;52.170;20.884;2023-06-22T01:14:12;100449.47;;;20.50;100.00
21276;BME280;36472;52.170;20.884;2023-06-22T01:16:45;100462.66;;;20.51;100.00
21276;BME280;36472;52.170;20.884;2023-06-22T01:19:37;100464.13;;;20.54;100.00
21276;BME280;36472;52.170;20.884;2023-06-22T01:22:12;100458.66;;;20.55;100.00
21276;BME280;36472;52.170;20.884;2023-06-22T01:24:57;100456.28;;;20.52;100.00
21276;BME280;36472;52.170;20.884;2023-06-22T01:27:39;100453.78;;;20.51;100.00
21276;BME280;36472;52.170;20.884;2023-06-22T01:30:13;100453.47;;;20.54;100.00
21276;BME280;36472;52.170;20.884;2023-06-22T01:32:45;100453.47;;;20.54;100.00
21276;BME280;36472;52.170;20.884;2023-06-22T01:35:17;100453.94;;;20.49;100.00
21276;BME280;36472;52.170;20.884;2023-06-22T01:37:47;100451.78;;;20.45;100.00
21276;BME280;36472;52.170;20.884;2023-06-22T01:40:21;100451.09;;;20.43;100.00
21276;BME280;36472;52.170;20.884;2023-06-22T01:42:52;100452.28;;;20.40;100.00
21276;BME280;36472;52.170;20.884;2023-06-22T01:45:24;100451.63;;;20.46;100.00
21276;BME280;36472;52.170;20.884;2023-06-22T01:47:55;100468.66;;;20.53;100.00
21276;BME280;36472;52.170;20.884;2023-06-22T01:50:25;100469.13;;;20.49;100.00
21276;BME280;36472;52.170;20.884;2023-06-22T01:52:56;100476.31;;;20.48;100.00
21276;BME280;36472;52.170;20.884;2023-06-22T01:55:26;100491.47;;;20.48;100.00
21276;BME280;36472;52.170;20.884;2023-06-22T01:57:55;100485.63;;;20.44;100.00
21276;BME280;36472;52.170;20.884;2023-06-22T02:00:32;100487.31;;;20.45;100.00
21276;BME280;36472;52.170;20.884;2023-06-22T02:03:10;100483.66;;;20.46;100.00
21276;BME280;36472;52.170;20.884;2023-06-22T02:05:48;100481.34;;;20.51;100.00
21276;BME280;36472;52.170;20.884;2023-06-22T02:08:21;100492.00;;;20.51;100.00
21276;BME280;36472;52.170;20.884;2023-06-22T02:10:53;100505.38;;;20.51;100.00
21276;BME280;36472;52.170;20.884;2023-06-22T02:13:25;100503.50;;;20.52;100.00
21276;BME280;36472;52.170;20.884;2023-06-22T02:20:28;100510.84;;;20.58;100.00
21276;BME280;36472;52.170;20.884;2023-06-22T02:22:57;100508.88;;;20.60;100.00
21276;BME280;36472;52.170;20.884;2023-06-22T02:25:27;100516.09;;;20.68;100.00
21276;BME280;36472;52.170;20.884;2023-06-22T02:27:56;100513.94;;;20.71;100.00
21276;BME280;36472;52.170;20.884;2023-06-22T02:30:25;100521.47;;;20.76;100.00
21276;BME280;36472;52.170;20.884;2023-06-22T02:32:54;100524.28;;;20.74;100.00
21276;BME280;36472;52.170;20.884;2023-06-22T02:35:29;100528.13;;;20.80;100.00
21276;BME280;36472;52.170;20.884;2023-06-22T02:38:00;100532.84;;;20.86;100.00
21276;BME280;36472;52.170;20.884;2023-06-22T02:40:30;100536.16;;;20.88;100.00
21276;BME280;36472;52.170;20.884;2023-06-22T02:42:59;100535.50;;;20.86;100.00
21276;BME280;36472;52.170;20.884;2023-06-22T02:45:31;100538.69;;;20.90;100.00
21276;BME280;36472;52.170;20.884;2023-06-22T02:48:00;100542.69;;;20.94;100.00
21276;BME280;36472;52.170;20.884;2023-06-22T02:50:31;100547.34;;;20.92;100.00
21276;BME280;36472;52.170;20.884;2023-06-22T02:53:00;100552.38;;;20.95;100.00
21276;BME280;36472;52.170;20.884;2023-06-22T02:55:33;100556.91;;;20.95;100.00
21276;BME280;36472;52.170;20.884;2023-06-22T02:58:01;100559.88;;;20.91;100.00
21276;BME280;36472;52.170;20.884;2023-06-22T03:00:35;100565.06;;;20.93;100.00
21276;BME280;36472;52.170;20.884;2023-06-22T03:03:04;100569.59;;;20.92;100.00
21276;BME280;36472;52.170;20.884;2023-06-22T03:05:34;100565.91;;;20.93;100.00
21276;BME280;36472;52.170;20.884;2023-06-22T03:08:04;100564.91;;;20.95;100.00
21276;BME280;36472;52.170;20.884;2023-06-22T03:10:35;100567.59;;;20.95;100.00
21276;BME280;36472;52.170;20.884;2023-06-22T03:13:04;100572.59;;;20.98;100.00
21276;BME280;36472;52.170;20.884;2023-06-22T03:15:34;100570.59;;;21.00;100.00
21276;BME280;36472;52.170;20.884;2023-06-22T03:18:03;100576.13;;;21.06;100.00
21276;BME280;36472;52.170;20.884;2023-06-22T03:20:34;100573.94;;;21.10;100.00
21276;BME280;36472;52.170;20.884;2023-06-22T03:23:03;100573.63;;;21.05;100.00
21276;BME280;36472;52.170;20.884;2023-06-22T03:25:33;100567.59;;;21.03;100.00
21276;BME280;36472;52.170;20.884;2023-06-22T03:28:03;100576.94;;;20.99;100.00
21276;BME280;36472;52.170;20.884;2023-06-22T03:30:32;100571.59;;;20.99;100.00
21276;BME280;36472;52.170;20.884;2023-06-22T03:33:01;100568.59;;;21.02;100.00
21276;BME280;36472;52.170;20.884;2023-06-22T03:35:30;100575.63;;;21.03;100.00
21276;BME280;36472;52.170;20.884;2023-06-22T03:38:01;100578.97;;;21.05;100.00
21276;BME280;36472;52.170;20.884;2023-06-22T03:40:31;100583.63;;;21.11;100.00
21276;BME280;36472;52.170;20.884;2023-06-22T03:43:01;100590.16;;;21.08;100.00
21276;BME280;36472;52.170;20.884;2023-06-22T03:45:30;100600.00;;;21.08;100.00
21276;BME280;36472;52.170;20.884;2023-06-22T03:48:00;100608.53;;;21.11;100.00
21276;BME280;36472;52.170;20.884;2023-06-22T03:50:29;100606.19;;;21.17;100.00
21276;BME280;36472;52.170;20.884;2023-06-22T03:52:58;100596.19;;;21.19;100.00
21276;BME280;36472;52.170;20.884;2023-06-22T03:55:29;100608.69;;;21.26;100.00
21276;BME280;36472;52.170;20.884;2023-06-22T03:57:58;100604.84;;;21.21;100.00
21276;BME280;36472;52.170;20.884;2023-06-22T04:00:33;100612.56;;;21.24;100.00
21276;BME280;36472;52.170;20.884;2023-06-22T04:03:02;100612.72;;;21.22;100.00
21276;BME280;36472;52.170;20.884;2023-06-22T04:05:31;100616.72;;;21.26;100.00
21276;BME280;36472;52.170;20.884;2023-06-22T04:08:00;100622.09;;;21.35;100.00
21276;BME280;36472;52.170;20.884;2023-06-22T04:10:31;100617.06;;;21.40;100.00
21276;BME280;36472;52.170;20.884;2023-06-22T04:13:00;100620.59;;;21.40;100.00
21276;BME280;36472;52.170;20.884;2023-06-22T04:15:29;100623.09;;;21.42;100.00
21276;BME280;36472;52.170;20.884;2023-06-22T04:17:57;100611.59;;;21.50;100.00
21276;BME280;36472;52.170;20.884;2023-06-22T04:20:27;100625.16;;;21.56;100.00
21276;BME280;36472;52.170;20.884;2023-06-22T04:22:56;100625.81;;;21.58;100.00
21276;BME280;36472;52.170;20.884;2023-06-22T04:25:25;100627.47;;;21.67;100.00
21276;BME280;36472;52.170;20.884;2023-06-22T04:27:56;100627.16;;;21.71;100.00
21276;BME280;36472;52.170;20.884;2023-06-22T04:30:25;100634.84;;;21.65;100.00
21276;BME280;36472;52.170;20.884;2023-06-22T04:32:54;100640.03;;;21.67;100.00
21276;BME280;36472;52.170;20.884;2023-06-22T04:35:26;100631.16;;;21.66;100.00
21276;BME280;36472;52.170;20.884;2023-06-22T04:37:58;100630.84;;;21.70;100.00
21276;BME280;36472;52.170;20.884;2023-06-22T04:40:27;100642.19;;;21.63;100.00
21276;BME280;36472;52.170;20.884;2023-06-22T04:42:58;100637.84;;;21.62;100.00
21276;BME280;36472;52.170;20.884;2023-06-22T04:50:03;100626.16;;;21.63;100.00
21276;BME280;36472;52.170;20.884;2023-06-22T04:52:33;100628.50;;;21.66;100.00
21276;BME280;36472;52.170;20.884;2023-06-22T04:55:02;100632.16;;;21.74;100.00
21276;BME280;36472;52.170;20.884;2023-06-22T04:57:31;100629.66;;;21.72;100.00
21276;BME280;36472;52.170;20.884;2023-06-22T05:00:04;100622.81;;;21.70;100.00
21276;BME280;36472;52.170;20.884;2023-06-22T05:02:45;100624.63;;;21.69;100.00
21276;BME280;36472;52.170;20.884;2023-06-22T05:05:15;100631.34;;;21.73;100.00
21276;BME280;36472;52.170;20.884;2023-06-22T05:07:46;100626.81;;;21.82;100.00
21276;BME280;36472;52.170;20.884;2023-06-22T05:10:19;100624.97;;;21.91;100.00
21276;BME280;36472;52.170;20.884;2023-06-22T05:12:48;100630.16;;;21.92;100.00
21276;BME280;36472;52.170;20.884;2023-06-22T05:15:18;100615.78;;;21.93;100.00
21276;BME280;36472;52.170;20.884;2023-06-22T05:17:47;100624.81;;;22.00;100.00
21276;BME280;36472;52.170;20.884;2023-06-22T05:20:17;100627.47;;;22.00;100.00
21276;BME280;36472;52.170;20.884;2023-06-22T05:22:46;100632.63;;;22.10;100.00
21276;BME280;36472;52.170;20.884;2023-06-22T05:25:15;100635.66;;;22.07;100.00
21276;BME280;36472;52.170;20.884;2023-06-22T05:27:44;100638.84;;;22.11;100.00
21276;BME280;36472;52.170;20.884;2023-06-22T05:30:14;100641.69;;;22.09;100.00
21276;BME280;36472;52.170;20.884;2023-06-22T05:32:47;100646.00;;;22.18;100.00
21276;BME280;36472;52.170;20.884;2023-06-22T05:35:16;100653.84;;;22.20;100.00
21276;BME280;36472;52.170;20.884;2023-06-22T05:37:45;100654.69;;;22.20;100.00
21276;BME280;36472;52.170;20.884;2023-06-22T05:40:14;100651.34;;;22.27;100.00
21276;BME280;36472;52.170;20.884;2023-06-22T05:42:43;100658.91;;;22.31;100.00
21276;BME280;36472;52.170;20.884;2023-06-22T05:45:12;100664.09;;;22.33;100.00
21276;BME280;36472;52.170;20.884;2023-06-22T05:47:41;100657.19;;;22.38;100.00
21276;BME280;36472;52.170;20.884;2023-06-22T05:50:12;100664.41;;;22.46;100.00
21276;BME280;36472;52.170;20.884;2023-06-22T05:52:40;100666.75;;;22.41;100.00
21276;BME280;36472;52.170;20.884;2023-06-22T05:55:10;100664.25;;;22.39;100.00
21276;BME280;36472;52.170;20.884;2023-06-22T06:02:10;100662.53;;;22.47;100.00
21276;BME280;36472;52.170;20.884;2023-06-22T06:04:39;100664.03;;;22.49;100.00
21276;BME280;36472;52.170;20.884;2023-06-22T06:07:10;100675.38;;;22.59;100.00
21276;BME280;36472;52.170;20.884;2023-06-22T06:09:39;100678.22;;;22.58;99.82
21276;BME280;36472;52.170;20.884;2023-06-22T06:12:08;100682.91;;;22.64;99.40
21276;BME280;36472;52.170;20.884;2023-06-22T06:14:37;100688.44;;;22.63;98.82
21276;BME280;36472;52.170;20.884;2023-06-22T06:17:06;100695.78;;;22.69;98.13
21276;BME280;36472;52.170;20.884;2023-06-22T06:19:36;100700.94;;;22.78;98.09
21276;BME280;36472;52.170;20.884;2023-06-22T06:22:05;100695.22;;;22.90;98.43
21276;BME280;36472;52.170;20.884;2023-06-22T06:24:35;100692.50;;;22.98;96.26
21276;BME280;36472;52.170;20.884;2023-06-22T06:27:04;100690.31;;;23.02;95.70
21276;BME280;36472;52.170;20.884;2023-06-22T06:34:06;100680.81;;;23.30;94.38
21276;BME280;36472;52.170;20.884;2023-06-22T06:36:35;100690.63;;;23.38;93.65
21276;BME280;36472;52.170;20.884;2023-06-22T06:39:05;100691.63;;;23.45;92.25
21276;BME280;36472;52.170;20.884;2023-06-22T06:41:35;100692.56;;;23.52;93.53
21276;BME280;36472;52.170;20.884;2023-06-22T06:44:10;100682.22;;;23.73;91.52
21276;BME280;36472;52.170;20.884;2023-06-22T06:46:39;100684.00;;;24.03;88.20
21276;BME280;36472;52.170;20.884;2023-06-22T06:53:43;100682.97;;;24.57;84.95
21276;BME280;36472;52.170;20.884;2023-06-22T06:56:12;100689.53;;;24.70;83.03
21276;BME280;36472;52.170;20.884;2023-06-22T06:58:43;100690.53;;;24.83;82.14
21276;BME280;36472;52.170;20.884;2023-06-22T07:01:13;100673.88;;;24.73;80.90
21276;BME280;36472;52.170;20.884;2023-06-22T07:03:43;100679.22;;;24.88;81.61
21276;BME280;36472;52.170;20.884;2023-06-22T07:06:13;100682.97;;;24.87;82.37
21276;BME280;36472;52.170;20.884;2023-06-22T07:08:42;100673.94;;;24.80;81.45
21276;BME280;36472;52.170;20.884;2023-06-22T07:11:11;100668.47;;;25.03;80.47
21276;BME280;36472;52.170;20.884;2023-06-22T07:13:41;100677.13;;;25.20;77.04
21276;BME280;36472;52.170;20.884;2023-06-22T07:16:10;100690.09;;;25.31;76.41
21276;BME280;36472;52.170;20.884;2023-06-22T07:18:40;100687.13;;;25.41;75.44
21276;BME280;36472;52.170;20.884;2023-06-22T07:21:08;100697.84;;;25.56;74.42
21276;BME280;36472;52.170;20.884;2023-06-22T07:23:38;100703.03;;;25.57;75.13
21276;BME280;36472;52.170;20.884;2023-06-22T07:26:06;100693.78;;;25.67;73.29
21276;BME280;36472;52.170;20.884;2023-06-22T07:28:36;100696.03;;;25.85;73.36
21276;BME280;36472;52.170;20.884;2023-06-22T07:31:07;100690.81;;;25.98;71.81
21276;BME280;36472;52.170;20.884;2023-06-22T07:33:36;100707.63;;;25.85;73.38
21276;BME280;36472;52.170;20.884;2023-06-22T07:40:36;100709.75;;;25.68;71.73
21276;BME280;36472;52.170;20.884;2023-06-22T07:43:05;100705.00;;;25.70;72.04
21276;BME280;36472;52.170;20.884;2023-06-22T07:45:34;100708.91;;;25.89;71.71
21276;BME280;36472;52.170;20.884;2023-06-22T07:48:05;100716.88;;;25.98;70.17
21276;BME280;36472;52.170;20.884;2023-06-22T07:50:34;100709.69;;;26.05;69.62
21276;BME280;36472;52.170;20.884;2023-06-22T07:53:03;100717.63;;;26.13;69.13
21276;BME280;36472;52.170;20.884;2023-06-22T07:55:32;100716.38;;;26.09;68.04
21276;BME280;36472;52.170;20.884;2023-06-22T07:58:01;100719.88;;;26.09;66.42
21276;BME280;36472;52.170;20.884;2023-06-22T08:00:30;100703.66;;;26.03;66.80
21276;BME280;36472;52.170;20.884;2023-06-22T08:03:01;100715.78;;;26.13;68.05
21276;BME280;36472;52.170;20.884;2023-06-22T08:05:33;100718.75;;;26.25;66.33
21276;BME280;36472;52.170;20.884;2023-06-22T08:08:02;100712.41;;;26.33;63.53
21276;BME280;36472;52.170;20.884;2023-06-22T08:10:32;100711.97;;;26.29;63.03
21276;BME280;36472;52.170;20.884;2023-06-22T08:13:01;100713.66;;;26.30;63.88
21276;BME280;36472;52.170;20.884;2023-06-22T08:15:30;100708.69;;;26.34;62.34
21276;BME280;36472;52.170;20.884;2023-06-22T08:22:34;100707.88;;;26.40;65.60
21276;BME280;36472;52.170;20.884;2023-06-22T08:25:05;100699.88;;;26.54;65.22
21276;BME280;36472;52.170;20.884;2023-06-22T08:27:35;100706.44;;;26.73;65.09
21276;BME280;36472;52.170;20.884;2023-06-22T08:30:06;100706.50;;;26.79;62.80
21276;BME280;36472;52.170;20.884;2023-06-22T08:32:35;100697.38;;;26.80;61.64
21276;BME280;36472;52.170;20.884;2023-06-22T08:35:05;100694.72;;;26.87;62.47
21276;BME280;36472;52.170;20.884;2023-06-22T08:37:37;100698.03;;;26.89;60.06
21276;BME280;36472;52.170;20.884;2023-06-22T08:40:09;100704.88;;;26.92;59.10
21276;BME280;36472;52.170;20.884;2023-06-22T08:42:41;100709.19;;;26.79;59.60
21276;BME280;36472;52.170;20.884;2023-06-22T08:45:10;100707.75;;;26.83;59.59
21276;BME280;36472;52.170;20.884;2023-06-22T08:47:40;100712.53;;;26.88;59.36
21276;BME280;36472;52.170;20.884;2023-06-22T08:50:11;100725.44;;;26.93;58.00
21276;BME280;36472;52.170;20.884;2023-06-22T08:52:42;100715.50;;;27.00;60.62
21276;BME280;36472;52.170;20.884;2023-06-22T08:55:11;100722.38;;;27.02;56.48
21276;BME280;36472;52.170;20.884;2023-06-22T08:57:40;100722.78;;;26.99;55.53
21276;BME280;36472;52.170;20.884;2023-06-22T09:04:42;100729.84;;;27.07;54.82
21276;BME280;36472;52.170;20.884;2023-06-22T09:07:11;100728.03;;;27.14;53.21
21276;BME280;36472;52.170;20.884;2023-06-22T09:09:42;100726.56;;;27.12;53.59
21276;BME280;36472;52.170;20.884;2023-06-22T09:12:11;100728.03;;;27.14;54.58
21276;BME280;36472;52.170;20.884;2023-06-22T09:14:40;100721.41;;;27.23;52.00
21276;BME280;36472;52.170;20.884;2023-06-22T09:17:09;100722.03;;;27.25;53.26
21276;BME280;36472;52.170;20.884;2023-06-22T09:19:38;100720.41;;;27.31;51.02
21276;BME280;36472;52.170;20.884;2023-06-22T09:22:07;100714.41;;;27.36;49.97
21276;BME280;36472;52.170;20.884;2023-06-22T09:24:36;100717.97;;;27.50;51.29
21276;BME280;36472;52.170;20.884;2023-06-22T09:27:07;100706.56;;;27.48;50.80
21276;BME280;36472;52.170;20.884;2023-06-22T09:29:36;100709.69;;;27.51;50.79
21276;BME280;36472;52.170;20.884;2023-06-22T09:32:06;100705.34;;;27.64;50.91
21276;BME280;36472;52.170;20.884;2023-06-22T09:34:36;100711.16;;;27.74;48.25
21276;BME280;36472;52.170;20.884;2023-06-22T09:37:05;100700.59;;;27.72;49.93
21276;BME280;36472;52.170;20.884;2023-06-22T09:39:34;100704.75;;;27.88;47.41
21276;BME280;36472;52.170;20.884;2023-06-22T09:42:06;100713.09;;;27.93;47.98
21276;BME280;36472;52.170;20.884;2023-06-22T09:44:36;100700.00;;;27.97;47.57
21276;BME280;36472;52.170;20.884;2023-06-22T09:47:06;100701.88;;;28.16;47.54
21276;BME280;36472;52.170;20.884;2023-06-22T09:49:35;100705.19;;;28.25;47.73
21276;BME280;36472;52.170;20.884;2023-06-22T09:52:15;100713.50;;;28.30;47.14
21276;BME280;36472;52.170;20.884;2023-06-22T09:59:18;100703.91;;;28.61;48.56
21276;BME280;36472;52.170;20.884;2023-06-22T10:01:46;100704.53;;;28.63;46.43
21276;BME280;36472;52.170;20.884;2023-06-22T10:04:16;100703.66;;;28.69;47.57
21276;BME280;36472;52.170;20.884;2023-06-22T10:06:45;100703.63;;;28.83;47.09
21276;BME280;36472;52.170;20.884;2023-06-22T10:09:14;100709.41;;;28.93;47.53
21276;BME280;36472;52.170;20.884;2023-06-22T10:11:43;100703.78;;;29.01;46.91
21276;BME280;36472;52.170;20.884;2023-06-22T10:14:12;100715.19;;;29.03;45.48
21276;BME280;36472;52.170;20.884;2023-06-22T10:16:42;100720.00;;;29.01;47.37
21276;BME280;36472;52.170;20.884;2023-06-22T10:19:11;100719.94;;;29.15;46.79
21276;BME280;36472;52.170;20.884;2023-06-22T10:21:40;100711.22;;;29.13;47.00
21276;BME280;36472;52.170;20.884;2023-06-22T10:24:09;100703.13;;;29.06;47.04
21276;BME280;36472;52.170;20.884;2023-06-22T10:26:38;100707.44;;;29.14;47.69
21276;BME280;36472;52.170;20.884;2023-06-22T10:29:07;100702.91;;;29.14;47.02
21276;BME280;36472;52.170;20.884;2023-06-22T10:31:57;100691.63;;;29.24;47.13
21276;BME280;36472;52.170;20.884;2023-06-22T10:34:26;100694.66;;;29.41;47.57
21276;BME280;36472;52.170;20.884;2023-06-22T10:36:55;100688.59;;;29.45;46.28
21276;BME280;36472;52.170;20.884;2023-06-22T10:39:24;100688.94;;;29.56;46.38
21276;BME280;36472;52.170;20.884;2023-06-22T10:41:53;100697.19;;;29.68;45.89
21276;BME280;36472;52.170;20.884;2023-06-22T10:44:23;100702.78;;;29.73;45.72
21276;BME280;36472;52.170;20.884;2023-06-22T10:46:52;100691.72;;;29.74;45.14
21276;BME280;36472;52.170;20.884;2023-06-22T10:49:24;100685.06;;;29.77;45.66
21276;BME280;36472;52.170;20.884;2023-06-22T10:51:53;100689.81;;;29.81;46.32
21276;BME280;36472;52.170;20.884;2023-06-22T10:54:22;100676.44;;;30.12;45.89
21276;BME280;36472;52.170;20.884;2023-06-22T10:56:51;100673.25;;;30.40;44.22
21276;BME280;36472;52.170;20.884;2023-06-22T10:59:20;100667.31;;;30.50;43.95
21276;BME280;36472;52.170;20.884;2023-06-22T11:01:51;100683.31;;;30.88;43.68
21276;BME280;36472;52.170;20.884;2023-06-22T11:04:20;100672.69;;;30.93;42.78
21276;BME280;36472;52.170;20.884;2023-06-22T11:06:51;100673.41;;;31.01;41.37
21276;BME280;36472;52.170;20.884;2023-06-22T11:09:20;100669.31;;;31.10;41.23
21276;BME280;36472;52.170;20.884;2023-06-22T11:11:56;100669.53;;;31.08;42.04
21276;BME280;36472;52.170;20.884;2023-06-22T11:14:27;100669.94;;;30.75;42.69
21276;BME280;36472;52.170;20.884;2023-06-22T11:16:56;100666.28;;;30.51;43.33
21276;BME280;36472;52.170;20.884;2023-06-22T11:19:25;100660.69;;;30.46;43.48
21276;BME280;36472;52.170;20.884;2023-06-22T11:21:56;100654.19;;;30.47;43.59
21276;BME280;36472;52.170;20.884;2023-06-22T11:24:25;100652.59;;;30.57;42.70
21276;BME280;36472;52.170;20.884;2023-06-22T11:26:54;100665.72;;;30.42;43.92
21276;BME280;36472;52.170;20.884;2023-06-22T11:29:25;100648.50;;;30.30;43.42
21276;BME280;36472;52.170;20.884;2023-06-22T11:32:06;100670.94;;;30.18;44.12
21276;BME280;36472;52.170;20.884;2023-06-22T11:34:38;100668.97;;;30.07;43.63
21276;BME280;36472;52.170;20.884;2023-06-22T11:37:09;100661.44;;;29.84;43.91
21276;BME280;36472;52.170;20.884;2023-06-22T11:39:38;100663.41;;;29.70;45.51
21276;BME280;36472;52.170;20.884;2023-06-22T11:42:14;100666.94;;;29.77;44.64
21276;BME280;36472;52.170;20.884;2023-06-22T11:44:44;100666.75;;;29.72;44.46
21276;BME280;36472;52.170;20.884;2023-06-22T11:47:13;100672.25;;;29.59;44.43
21276;BME280;36472;52.170;20.884;2023-06-22T11:49:42;100673.72;;;29.55;44.85
21276;BME280;36472;52.170;20.884;2023-06-22T11:52:12;100667.69;;;29.53;44.65
21276;BME280;36472;52.170;20.884;2023-06-22T11:54:41;100664.59;;;29.49;44.75
21276;BME280;36472;52.170;20.884;2023-06-22T12:01:42;100667.28;;;29.56;44.31
21276;BME280;36472;52.170;20.884;2023-06-22T12:04:11;100658.75;;;29.52;43.57
21276;BME280;36472;52.170;20.884;2023-06-22T12:06:40;100655.72;;;29.42;44.96
21276;BME280;36472;52.170;20.884;2023-06-22T12:09:10;100658.81;;;29.45;45.50
21276;BME280;36472;52.170;20.884;2023-06-22T12:11:41;100654.16;;;29.53;44.66
21276;BME280;36472;52.170;20.884;2023-06-22T12:14:10;100650.72;;;29.39;44.15
21276;BME280;36472;52.170;20.884;2023-06-22T12:16:39;100653.66;;;29.37;44.92
21276;BME280;36472;52.170;20.884;2023-06-22T12:19:08;100643.09;;;29.29;43.76
21276;BME280;36472;52.170;20.884;2023-06-22T12:21:38;100637.88;;;29.27;43.95
21276;BME280;36472;52.170;20.884;2023-06-22T12:24:09;100640.38;;;29.29;44.12
21276;BME280;36472;52.170;20.884;2023-06-22T12:26:38;100634.56;;;29.25;44.70
21276;BME280;36472;52.170;20.884;2023-06-22T12:29:07;100624.53;;;29.33;44.98
21276;BME280;36472;52.170;20.884;2023-06-22T12:31:36;100637.81;;;29.41;43.85
21276;BME280;36472;52.170;20.884;2023-06-22T12:34:06;100636.38;;;29.38;43.07
21276;BME280;36472;52.170;20.884;2023-06-22T12:36:35;100640.97;;;29.31;41.37
21276;BME280;36472;52.170;20.884;2023-06-22T12:39:04;100641.16;;;29.36;42.16
21276;BME280;36472;52.170;20.884;2023-06-22T12:41:35;100636.63;;;29.30;40.98
21276;BME280;36472;52.170;20.884;2023-06-22T12:44:04;100631.19;;;29.37;42.32
21276;BME280;36472;52.170;20.884;2023-06-22T12:46:33;100634.69;;;29.37;43.07
21276;BME280;36472;52.170;20.884;2023-06-22T12:49:05;100638.78;;;29.46;43.57
21276;BME280;36472;52.170;20.884;2023-06-22T12:51:40;100639.38;;;29.55;42.90
21276;BME280;36472;52.170;20.884;2023-06-22T12:54:10;100643.72;;;29.56;43.22
21276;BME280;36472;52.170;20.884;2023-06-22T12:56:41;100637.09;;;29.52;42.27
21276;BME280;36472;52.170;20.884;2023-06-22T12:59:11;100630.97;;;29.63;41.69
21276;BME280;36472;52.170;20.884;2023-06-22T13:06:12;100627.13;;;29.46;42.62
21276;BME280;36472;52.170;20.884;2023-06-22T13:08:41;100633.06;;;29.61;41.57
21276;BME280;36472;52.170;20.884;2023-06-22T13:11:13;100623.69;;;29.64;41.21
21276;BME280;36472;52.170;20.884;2023-06-22T13:13:45;100629.09;;;29.64;41.20
21276;BME280;36472;52.170;20.884;2023-06-22T13:16:14;100638.88;;;29.65;41.20
21276;BME280;36472;52.170;20.884;2023-06-22T13:18:43;100637.94;;;29.53;41.62
21276;BME280;36472;52.170;20.884;2023-06-22T13:21:12;100629.47;;;29.42;41.44
21276;BME280;36472;52.170;20.884;2023-06-22T13:23:41;100631.47;;;29.54;41.33
21276;BME280;36472;52.170;20.884;2023-06-22T13:26:11;100627.16;;;29.71;40.86
21276;BME280;36472;52.170;20.884;2023-06-22T13:28:40;100632.56;;;29.78;39.53
21276;BME280;36472;52.170;20.884;2023-06-22T13:31:10;100631.59;;;29.91;39.67
21276;BME280;36472;52.170;20.884;2023-06-22T13:33:39;100625.34;;;29.90;40.31
21276;BME280;36472;52.170;20.884;2023-06-22T13:36:08;100634.94;;;29.93;39.92
21276;BME280;36472;52.170;20.884;2023-06-22T13:38:37;100634.84;;;29.99;40.29
21276;BME280;36472;52.170;20.884;2023-06-22T13:41:06;100632.53;;;30.03;39.36